sensor_id;sensor_type;location;lat;lon;timestamp;P1;durP1;ratioP1;P2;durP2;ratioP2
83485;SDS011;73423;45.118;20.726;2024-02-16T00:00:19;116.65;;;43.85;;
83485;SDS011;73423;45.118;20.726;2024-02-16T00:10:21;122.47;;;44.83;;
83485;SDS011;73423;45.118;20.726;2024-02-16T00:20:22;140.27;;;51.40;;
83485;SDS011;73423;45.118;20.726;2024-02-16T00:30:25;154.90;;;54.57;;
83485;SDS011;73423;45.118;20.726;2024-02-16T00:40:28;142.05;;;49.67;;
83485;SDS011;73423;45.118;20.726;2024-02-16T00:50:29;149.23;;;53.03;;
83485;SDS011;73423;45.118;20.726;2024-02-16T01:00:30;159.70;;;55.73;;
83485;SDS011;73423;45.118;20.726;2024-02-16T01:10:31;177.10;;;59.58;;
83485;SDS011;73423;45.118;20.726;2024-02-16T01:20:32;170.63;;;59.67;;
83485;SDS011;73423;45.118;20.726;2024-02-16T01:30:34;170.27;;;57.60;;
83485;SDS011;73423;45.118;20.726;2024-02-16T01:40:35;141.18;;;48.40;;
83485;SDS011;73423;45.118;20.726;2024-02-16T01:50:36;163.00;;;50.45;;
83485;SDS011;73423;45.118;20.726;2024-02-16T02:00:37;121.20;;;40.13;;
83485;SDS011;73423;45.118;20.726;2024-02-16T02:10:38;73.40;;;29.40;;
83485;SDS011;73423;45.118;20.726;2024-02-16T02:20:39;76.53;;;30.02;;
83485;SDS011;73423;45.118;20.726;2024-02-16T02:30:41;68.67;;;27.57;;
83485;SDS011;73423;45.118;20.726;2024-02-16T02:40:45;63.30;;;23.57;;
83485;SDS011;73423;45.118;20.726;2024-02-16T02:50:47;53.17;;;22.50;;
83485;SDS011;73423;45.118;20.726;2024-02-16T03:00:48;55.13;;;19.97;;
83485;SDS011;73423;45.118;20.726;2024-02-16T03:10:49;51.33;;;23.20;;
83485;SDS011;73423;45.118;20.726;2024-02-16T03:20:50;54.65;;;21.92;;
83485;SDS011;73423;45.118;20.726;2024-02-16T03:30:52;58.15;;;22.95;;
83485;SDS011;73423;45.118;20.726;2024-02-16T03:40:53;49.27;;;21.57;;
83485;SDS011;73423;45.118;20.726;2024-02-16T03:50:54;45.07;;;19.67;;
83485;SDS011;73423;45.118;20.726;2024-02-16T04:00:55;43.65;;;19.17;;
83485;SDS011;73423;45.118;20.726;2024-02-16T04:10:56;48.13;;;19.43;;
83485;SDS011;73423;45.118;20.726;2024-02-16T04:20:58;39.67;;;19.33;;
83485;SDS011;73423;45.118;20.726;2024-02-16T04:31:00;42.65;;;19.25;;
83485;SDS011;73423;45.118;20.726;2024-02-16T04:41:01;47.50;;;20.37;;
83485;SDS011;73423;45.118;20.726;2024-02-16T04:51:02;57.60;;;23.17;;
83485;SDS011;73423;45.118;20.726;2024-02-16T05:01:03;51.33;;;23.40;;
83485;SDS011;73423;45.118;20.726;2024-02-16T05:11:07;53.70;;;24.98;;
83485;SDS011;73423;45.118;20.726;2024-02-16T05:21:09;55.67;;;25.00;;
83485;SDS011;73423;45.118;20.726;2024-02-16T05:31:13;48.23;;;23.60;;
83485;SDS011;73423;45.118;20.726;2024-02-16T05:41:17;49.22;;;23.20;;
83485;SDS011;73423;45.118;20.726;2024-02-16T05:51:19;49.47;;;22.60;;
83485;SDS011;73423;45.118;20.726;2024-02-16T06:01:20;45.00;;;22.33;;
83485;SDS011;73423;45.118;20.726;2024-02-16T06:11:21;49.55;;;24.45;;
83485;SDS011;73423;45.118;20.726;2024-02-16T06:21:22;35.90;;;18.10;;
83485;SDS011;73423;45.118;20.726;2024-02-16T06:31:23;39.33;;;18.93;;
83485;SDS011;73423;45.118;20.726;2024-02-16T06:41:25;39.28;;;15.93;;
83485;SDS011;73423;45.118;20.726;2024-02-16T06:51:26;28.10;;;15.88;;
83485;SDS011;73423;45.118;20.726;2024-02-16T07:01:29;28.07;;;15.47;;
83485;SDS011;73423;45.118;20.726;2024-02-16T07:11:30;32.30;;;16.07;;
83485;SDS011;73423;45.118;20.726;2024-02-16T07:21:31;29.65;;;14.27;;
83485;SDS011;73423;45.118;20.726;2024-02-16T07:31:33;28.33;;;13.57;;
83485;SDS011;73423;45.118;20.726;2024-02-16T07:41:38;27.60;;;13.33;;
83485;SDS011;73423;45.118;20.726;2024-02-16T07:51:39;52.70;;;20.17;;
83485;SDS011;73423;45.118;20.726;2024-02-16T08:01:41;38.77;;;16.00;;
83485;SDS011;73423;45.118;20.726;2024-02-16T08:11:45;27.07;;;13.13;;
83485;SDS011;73423;45.118;20.726;2024-02-16T08:21:46;26.23;;;13.32;;
83485;SDS011;73423;45.118;20.726;2024-02-16T08:31:48;29.58;;;14.23;;
83485;SDS011;73423;45.118;20.726;2024-02-16T08:41:51;23.77;;;12.67;;
83485;SDS011;73423;45.118;20.726;2024-02-16T08:51:52;24.10;;;12.23;;
83485;SDS011;73423;45.118;20.726;2024-02-16T09:01:53;19.83;;;10.93;;
83485;SDS011;73423;45.118;20.726;2024-02-16T09:11:54;23.87;;;11.30;;
83485;SDS011;73423;45.118;20.726;2024-02-16T09:21:56;21.13;;;10.60;;
83485;SDS011;73423;45.118;20.726;2024-02-16T09:32:02;58.38;;;23.73;;
83485;SDS011;73423;45.118;20.726;2024-02-16T09:42:03;39.30;;;18.60;;
83485;SDS011;73423;45.118;20.726;2024-02-16T09:52:05;26.67;;;13.00;;
83485;SDS011;73423;45.118;20.726;2024-02-16T10:02:11;29.52;;;15.05;;
83485;SDS011;73423;45.118;20.726;2024-02-16T10:12:17;20.80;;;11.47;;
83485;SDS011;73423;45.118;20.726;2024-02-16T10:22:20;15.27;;;10.13;;
83485;SDS011;73423;45.118;20.726;2024-02-16T10:32:23;40.80;;;24.33;;
83485;SDS011;73423;45.118;20.726;2024-02-16T10:42:26;15.53;;;9.00;;
83485;SDS011;73423;45.118;20.726;2024-02-16T10:52:28;10.73;;;7.10;;
83485;SDS011;73423;45.118;20.726;2024-02-16T11:02:31;12.77;;;7.40;;
83485;SDS011;73423;45.118;20.726;2024-02-16T11:12:35;14.63;;;8.47;;
83485;SDS011;73423;45.118;20.726;2024-02-16T11:22:36;15.40;;;8.90;;
83485;SDS011;73423;45.118;20.726;2024-02-16T11:32:41;11.73;;;7.70;;
83485;SDS011;73423;45.118;20.726;2024-02-16T11:42:45;10.73;;;7.37;;
83485;SDS011;73423;45.118;20.726;2024-02-16T11:52:47;14.70;;;8.07;;
83485;SDS011;73423;45.118;20.726;2024-02-16T12:02:58;13.40;;;8.80;;
83485;SDS011;73423;45.118;20.726;2024-02-16T12:13:00;8.95;;;6.20;;
83485;SDS011;73423;45.118;20.726;2024-02-16T12:23:11;9.63;;;6.37;;
83485;SDS011;73423;45.118;20.726;2024-02-16T12:33:13;7.87;;;4.63;;
83485;SDS011;73423;45.118;20.726;2024-02-16T12:43:15;15.77;;;5.90;;
83485;SDS011;73423;45.118;20.726;2024-02-16T12:53:16;7.60;;;5.00;;
83485;SDS011;73423;45.118;20.726;2024-02-16T13:03:17;9.63;;;6.22;;
83485;SDS011;73423;45.118;20.726;2024-02-16T13:13:19;13.17;;;7.30;;
83485;SDS011;73423;45.118;20.726;2024-02-16T13:23:21;20.10;;;10.83;;
83485;SDS011;73423;45.118;20.726;2024-02-16T13:33:22;9.70;;;5.73;;
83485;SDS011;73423;45.118;20.726;2024-02-16T13:43:24;7.00;;;4.23;;
83485;SDS011;73423;45.118;20.726;2024-02-16T13:53:26;8.52;;;5.13;;
83485;SDS011;73423;45.118;20.726;2024-02-16T14:03:27;10.47;;;5.57;;
83485;SDS011;73423;45.118;20.726;2024-02-16T14:13:28;10.53;;;5.60;;
83485;SDS011;73423;45.118;20.726;2024-02-16T14:23:30;12.63;;;6.50;;
83485;SDS011;73423;45.118;20.726;2024-02-16T14:33:31;11.40;;;6.57;;
83485;SDS011;73423;45.118;20.726;2024-02-16T14:43:32;9.07;;;5.32;;
83485;SDS011;73423;45.118;20.726;2024-02-16T14:53:34;14.00;;;8.10;;
83485;SDS011;73423;45.118;20.726;2024-02-16T15:03:35;23.47;;;12.57;;
83485;SDS011;73423;45.118;20.726;2024-02-16T15:24:03;32.27;;;15.60;;
83485;SDS011;73423;45.118;20.726;2024-02-16T15:34:05;23.30;;;10.20;;
83485;SDS011;73423;45.118;20.726;2024-02-16T15:45:01;43.13;;;16.53;;
83485;SDS011;73423;45.118;20.726;2024-02-16T15:55:07;36.77;;;16.90;;
83485;SDS011;73423;45.118;20.726;2024-02-16T16:05:08;76.05;;;33.75;;
83485;SDS011;73423;45.118;20.726;2024-02-16T16:15:11;92.77;;;44.80;;
83485;SDS011;73423;45.118;20.726;2024-02-16T16:25:13;90.30;;;48.27;;
83485;SDS011;73423;45.118;20.726;2024-02-16T16:35:14;156.05;;;71.10;;
83485;SDS011;73423;45.118;20.726;2024-02-16T16:45:17;165.07;;;65.43;;
83485;SDS011;73423;45.118;20.726;2024-02-16T16:55:18;228.23;;;80.03;;
83485;SDS011;73423;45.118;20.726;2024-02-16T17:05:19;231.73;;;84.38;;
83485;SDS011;73423;45.118;20.726;2024-02-16T17:15:21;236.90;;;83.90;;
83485;SDS011;73423;45.118;20.726;2024-02-16T17:25:23;183.30;;;67.70;;
83485;SDS011;73423;45.118;20.726;2024-02-16T17:35:27;165.67;;;62.60;;
83485;SDS011;73423;45.118;20.726;2024-02-16T17:45:28;150.50;;;59.55;;
83485;SDS011;73423;45.118;20.726;2024-02-16T17:55:30;136.97;;;55.83;;
83485;SDS011;73423;45.118;20.726;2024-02-16T18:05:31;122.10;;;48.43;;
83485;SDS011;73423;45.118;20.726;2024-02-16T18:15:32;93.53;;;37.92;;
83485;SDS011;73423;45.118;20.726;2024-02-16T18:25:33;80.20;;;34.67;;
83485;SDS011;73423;45.118;20.726;2024-02-16T18:35:34;74.53;;;30.77;;
83485;SDS011;73423;45.118;20.726;2024-02-16T18:45:35;74.57;;;29.02;;
83485;SDS011;73423;45.118;20.726;2024-02-16T18:55:37;64.47;;;24.20;;
83485;SDS011;73423;45.118;20.726;2024-02-16T19:05:45;51.37;;;22.30;;
83485;SDS011;73423;45.118;20.726;2024-02-16T19:15:46;76.10;;;33.70;;
83485;SDS011;73423;45.118;20.726;2024-02-16T19:25:47;41.10;;;22.17;;
83485;SDS011;73423;45.118;20.726;2024-02-16T19:35:49;37.33;;;18.77;;
83485;SDS011;73423;45.118;20.726;2024-02-16T19:45:53;35.03;;;17.10;;
83485;SDS011;73423;45.118;20.726;2024-02-16T19:55:54;26.65;;;14.98;;
83485;SDS011;73423;45.118;20.726;2024-02-16T20:05:55;30.63;;;15.17;;
83485;SDS011;73423;45.118;20.726;2024-02-16T20:15:57;77.67;;;26.83;;
83485;SDS011;73423;45.118;20.726;2024-02-16T20:25:58;46.25;;;18.55;;
83485;SDS011;73423;45.118;20.726;2024-02-16T20:36:00;31.02;;;14.35;;
83485;SDS011;73423;45.118;20.726;2024-02-16T20:46:01;27.63;;;13.47;;
83485;SDS011;73423;45.118;20.726;2024-02-16T20:56:02;20.13;;;10.73;;
83485;SDS011;73423;45.118;20.726;2024-02-16T21:06:05;21.75;;;11.02;;
83485;SDS011;73423;45.118;20.726;2024-02-16T21:16:06;19.37;;;10.13;;
83485;SDS011;73423;45.118;20.726;2024-02-16T21:26:10;18.33;;;8.60;;
83485;SDS011;73423;45.118;20.726;2024-02-16T21:36:11;14.68;;;7.57;;
83485;SDS011;73423;45.118;20.726;2024-02-16T21:46:13;15.60;;;7.50;;
83485;SDS011;73423;45.118;20.726;2024-02-16T21:56:16;17.47;;;7.80;;
83485;SDS011;73423;45.118;20.726;2024-02-16T22:06:24;16.40;;;8.15;;
83485;SDS011;73423;45.118;20.726;2024-02-16T22:16:26;18.58;;;7.93;;
83485;SDS011;73423;45.118;20.726;2024-02-16T22:26:27;17.40;;;7.87;;
83485;SDS011;73423;45.118;20.726;2024-02-16T22:36:30;17.20;;;8.60;;
83485;SDS011;73423;45.118;20.726;2024-02-16T22:46:31;16.30;;;8.07;;
83485;SDS011;73423;45.118;20.726;2024-02-16T22:56:32;14.27;;;7.13;;
83485;SDS011;73423;45.118;20.726;2024-02-16T23:06:34;18.43;;;8.40;;
83485;SDS011;73423;45.118;20.726;2024-02-16T23:16:35;14.82;;;8.23;;
83485;SDS011;73423;45.118;20.726;2024-02-16T23:26:36;16.17;;;8.13;;
83485;SDS011;73423;45.118;20.726;2024-02-16T23:36:38;18.13;;;8.20;;
83485;SDS011;73423;45.118;20.726;2024-02-16T23:46:39;17.90;;;9.48;;
83485;SDS011;73423;45.118;20.726;2024-02-16T23:56:41;15.25;;;8.68;;
